Time;durP1;ratioP1;P1;durP2;ratioP2;P2;SDS_P1;SDS_P2;PMS_P1;PMS_P2;Temp;Humidity;BMP_temperature;BMP_pressure;BME280_temperature;BME280_humidity;BME280_pressure;Samples;Min_cycle;Max_cycle;Signal;HPM_P1;HPM_P2
2021/05/19 00:01:25;;;;;;;3.93;3.10;;;12.00;99.90;;;;;;5047815;28;20267;-48
2021/05/19 00:03:52;;;;;;;4.73;3.43;;;11.90;99.90;;;;;;5049805;28;20265;-48
2021/05/19 00:06:18;;;;;;;3.70;3.03;;;11.80;99.90;;;;;;5050692;28;20288;-48
2021/05/19 00:08:45;;;;;;;6.77;3.77;;;11.80;99.90;;;;;;5050603;28;20203;-49
2021/05/19 00:11:12;;;;;;;6.20;3.67;;;11.70;99.90;;;;;;5049312;28;20357;-48
2021/05/19 00:13:39;;;;;;;4.00;3.57;;;11.70;99.90;;;;;;5050984;28;20681;-48
2021/05/19 00:16:07;;;;;;;5.13;3.77;;;11.70;99.90;;;;;;5050304;28;20744;-48
2021/05/19 00:18:35;;;;;;;4.50;3.27;;;11.60;99.90;;;;;;5052315;28;20234;-48
2021/05/19 00:21:03;;;;;;;5.17;3.50;;;11.80;99.90;;;;;;5053677;28;20238;-48
2021/05/19 00:23:30;;;;;;;6.67;3.53;;;11.80;99.90;;;;;;5049875;28;20210;-48
2021/05/19 00:25:56;;;;;;;7.47;4.17;;;11.70;99.90;;;;;;5051420;28;20732;-49
2021/05/19 00:28:23;;;;;;;8.77;4.13;;;11.60;99.90;;;;;;5050959;28;20308;-48
2021/05/19 00:30:55;;;;;;;5.40;3.97;;;11.60;99.90;;;;;;5046325;28;20245;-49
2021/05/19 00:33:23;;;;;;;6.63;4.23;;;11.50;99.90;;;;;;5050649;28;20251;-50
2021/05/19 00:35:50;;;;;;;5.33;4.10;;;11.50;99.90;;;;;;5047028;28;20238;-48
2021/05/19 00:38:18;;;;;;;6.53;3.80;;;11.60;99.90;;;;;;5049569;28;20199;-48
2021/05/19 00:40:46;;;;;;;4.87;4.03;;;11.50;99.90;;;;;;5051268;28;20206;-49
2021/05/19 00:43:13;;;;;;;5.43;4.80;;;11.50;99.90;;;;;;5049625;28;20544;-48
2021/05/19 00:45:40;;;;;;;5.17;4.67;;;11.60;99.90;;;;;;5046239;28;20292;-48
2021/05/19 00:48:09;;;;;;;5.63;4.00;;;11.50;99.90;;;;;;5051972;28;20237;-48
2021/05/19 00:50:38;;;;;;;5.60;4.97;;;11.50;99.90;;;;;;5049930;28;20632;-49
2021/05/19 00:53:05;;;;;;;5.67;4.23;;;11.40;99.90;;;;;;5046453;28;20214;-49
2021/05/19 00:55:33;;;;;;;8.47;4.90;;;11.50;99.90;;;;;;5046792;28;20210;-48
2021/05/19 00:58:00;;;;;;;5.53;4.50;;;11.50;99.90;;;;;;5049721;28;20654;-48
2021/05/19 01:00:32;;;;;;;6.00;5.03;;;11.30;99.90;;;;;;5043865;28;20282;-49
2021/05/19 01:02:59;;;;;;;7.97;5.33;;;11.10;99.90;;;;;;5050711;28;20256;-48
2021/05/19 01:10:41;;;;;;;6.40;5.53;;;11.30;99.90;;;;;;5050277;28;20207;-48
2021/05/19 01:13:07;;;;;;;7.53;5.60;;;11.30;99.90;;;;;;5046411;28;20216;-48
2021/05/19 01:15:35;;;;;;;6.93;5.70;;;11.10;99.90;;;;;;5050643;28;20233;-48
2021/05/19 01:18:07;;;;;;;7.17;5.67;;;10.90;99.90;;;;;;5050588;28;20275;-47
2021/05/19 01:20:35;;;;;;;8.40;5.50;;;10.90;99.90;;;;;;5057865;28;20234;-49
2021/05/19 01:23:05;;;;;;;6.53;5.53;;;10.90;99.90;;;;;;5047357;28;20225;-48
2021/05/19 01:25:36;;;;;;;8.20;5.50;;;11.00;99.90;;;;;;5051042;28;21035;-48
2021/05/19 01:28:04;;;;;;;7.13;5.60;;;10.80;99.90;;;;;;5051856;28;20606;-48
2021/05/19 01:30:33;;;;;;;7.47;6.03;;;10.90;99.90;;;;;;5047819;28;20317;-49
2021/05/19 01:33:00;;;;;;;7.17;5.63;;;11.00;99.90;;;;;;5050222;28;20677;-50
2021/05/19 01:35:31;;;;;;;8.00;5.93;;;11.00;99.90;;;;;;5049599;28;20585;-49
2021/05/19 01:37:58;;;;;;;9.87;6.27;;;10.90;99.90;;;;;;5050664;28;20195;-48
2021/05/19 01:40:27;;;;;;;6.20;5.03;;;10.80;99.90;;;;;;5047820;28;20242;-49
2021/05/19 01:42:54;;;;;;;6.30;5.07;;;10.90;99.90;;;;;;5048405;28;20650;-49
2021/05/19 01:45:25;;;;;;;6.90;5.80;;;10.80;99.90;;;;;;5049614;28;20238;-48
2021/05/19 01:47:54;;;;;;;6.87;5.70;;;10.80;99.90;;;;;;5048221;28;20235;-48
2021/05/19 01:50:24;;;;;;;8.60;5.80;;;10.90;99.90;;;;;;5051423;28;20234;-48
2021/05/19 01:52:54;;;;;;;6.60;5.70;;;10.90;99.90;;;;;;5050678;28;20215;-48
2021/05/19 01:55:23;;;;;;;6.23;4.63;;;10.90;99.90;;;;;;5049804;28;20271;-48
2021/05/19 01:57:51;;;;;;;9.03;6.23;;;10.70;99.90;;;;;;5054172;28;20735;-48
2021/05/19 02:00:21;;;;;;;7.10;5.70;;;10.70;99.90;;;;;;5051285;28;20253;-48
2021/05/19 02:03:00;;;;;;;8.07;5.87;;;10.80;99.90;;;;;;5052724;28;20268;-48
2021/05/19 02:05:28;;;;;;;9.87;5.50;;;10.90;99.90;;;;;;5052344;28;20294;-49
2021/05/19 02:07:56;;;;;;;7.23;5.37;;;10.90;99.90;;;;;;5053839;28;20258;-48
2021/05/19 02:10:24;;;;;;;6.40;5.03;;;10.90;99.90;;;;;;5055008;28;20259;-48
2021/05/19 02:12:51;;;;;;;6.60;5.30;;;10.90;99.90;;;;;;5049749;28;20257;-48
2021/05/19 02:15:19;;;;;;;6.60;5.00;;;10.90;99.90;;;;;;5051725;28;20253;-48
2021/05/19 02:17:49;;;;;;;8.73;6.23;;;10.90;99.90;;;;;;5055019;28;20198;-48
2021/05/19 02:20:21;;;;;;;8.33;4.90;;;10.80;99.90;;;;;;5053503;28;20627;-48
2021/05/19 02:22:48;;;;;;;6.27;5.67;;;10.80;99.90;;;;;;5049249;28;20244;-48
2021/05/19 02:25:18;;;;;;;7.93;5.43;;;10.70;99.90;;;;;;5052798;28;20248;-48
2021/05/19 02:27:46;;;;;;;9.37;5.70;;;10.60;99.90;;;;;;5051609;28;20222;-48
2021/05/19 02:30:16;;;;;;;6.73;5.40;;;10.80;99.90;;;;;;5053795;28;20280;-48
2021/05/19 02:32:44;;;;;;;7.20;6.17;;;10.90;99.90;;;;;;5049874;28;20665;-48
2021/05/19 02:35:12;;;;;;;7.90;5.87;;;10.90;99.90;;;;;;5050069;28;20257;-48
2021/05/19 02:37:40;;;;;;;6.97;5.73;;;10.80;99.90;;;;;;5050787;28;20242;-48
2021/05/19 02:40:09;;;;;;;6.17;5.53;;;10.90;99.90;;;;;;5053759;28;20638;-49
2021/05/19 02:42:36;;;;;;;7.00;5.00;;;10.90;99.90;;;;;;5051929;28;20305;-49
2021/05/19 02:45:05;;;;;;;8.27;4.80;;;10.80;99.90;;;;;;5050875;28;20202;-48
2021/05/19 02:47:32;;;;;;;6.40;5.67;;;10.80;99.90;;;;;;5050159;28;20304;-48
2021/05/19 02:49:59;;;;;;;8.27;5.70;;;10.80;99.90;;;;;;5049867;28;20360;-48
2021/05/19 02:52:26;;;;;;;7.73;5.10;;;10.90;99.90;;;;;;5045898;28;20295;-48
2021/05/19 02:54:53;;;;;;;6.53;5.53;;;10.80;99.90;;;;;;5052516;28;20369;-47
2021/05/19 02:57:20;;;;;;;6.33;5.50;;;10.70;99.90;;;;;;5047404;28;20233;-49
2021/05/19 02:59:46;;;;;;;8.67;5.67;;;10.70;99.90;;;;;;5050817;28;20265;-48
2021/05/19 03:02:14;;;;;;;6.80;5.57;;;10.40;99.90;;;;;;5047526;28;20356;-48
2021/05/19 03:04:40;;;;;;;5.77;5.17;;;10.30;99.90;;;;;;5047531;28;21132;-48
2021/05/19 03:07:07;;;;;;;7.53;5.77;;;10.20;99.90;;;;;;5047926;28;20236;-48
2021/05/19 03:09:34;;;;;;;5.53;4.63;;;10.20;99.90;;;;;;5050327;28;20234;-49
2021/05/19 03:12:01;;;;;;;5.73;5.10;;;10.30;99.90;;;;;;5050247;28;20242;-48
2021/05/19 03:14:28;;;;;;;5.63;5.00;;;10.40;99.90;;;;;;5050391;28;20296;-48
2021/05/19 03:16:54;;;;;;;7.70;5.57;;;10.40;99.90;;;;;;5052082;28;20308;-48
2021/05/19 03:19:21;;;;;;;6.33;5.20;;;10.20;99.90;;;;;;5050073;28;20529;-48
2021/05/19 03:21:48;;;;;;;7.40;5.70;;;10.10;99.90;;;;;;5051549;28;20202;-47
2021/05/19 03:24:15;;;;;;;7.57;5.30;;;10.20;99.90;;;;;;5053838;28;20206;-48
2021/05/19 03:26:41;;;;;;;6.57;5.40;;;10.20;99.90;;;;;;5051511;28;20269;-48
2021/05/19 03:29:08;;;;;;;7.20;5.90;;;9.90;99.90;;;;;;5050245;28;20306;-49
2021/05/19 03:31:35;;;;;;;11.03;8.30;;;9.90;99.90;;;;;;5051218;28;20267;-50
2021/05/19 03:34:02;;;;;;;8.60;5.03;;;10.00;99.90;;;;;;5051003;28;20240;-48
2021/05/19 03:36:29;;;;;;;5.73;5.13;;;9.90;99.90;;;;;;5049139;28;20198;-48
2021/05/19 03:38:56;;;;;;;7.90;6.17;;;10.10;99.90;;;;;;5052729;28;20270;-48
2021/05/19 03:41:23;;;;;;;8.20;6.00;;;10.00;99.90;;;;;;5051326;28;20235;-48
2021/05/19 03:43:49;;;;;;;8.17;5.83;;;9.90;99.90;;;;;;5049972;28;20301;-48
2021/05/19 03:46:16;;;;;;;7.80;5.43;;;10.10;99.90;;;;;;5051581;28;20214;-49
2021/05/19 03:48:43;;;;;;;8.30;6.17;;;10.00;99.90;;;;;;5050729;28;20202;-48
2021/05/19 03:51:10;;;;;;;8.47;5.83;;;9.80;99.90;;;;;;5052419;28;20569;-48
2021/05/19 03:53:40;;;;;;;10.57;6.33;;;9.90;99.90;;;;;;5050945;28;20318;-48
2021/05/19 03:56:07;;;;;;;8.40;6.03;;;10.00;99.90;;;;;;5055336;28;20282;-49
2021/05/19 03:58:34;;;;;;;13.00;6.00;;;9.90;99.90;;;;;;5048336;28;20209;-48
2021/05/19 04:01:00;;;;;;;8.43;6.50;;;9.80;99.90;;;;;;5049508;28;20915;-48
2021/05/19 04:03:27;;;;;;;9.03;6.07;;;9.90;99.90;;;;;;5048508;28;20204;-48
2021/05/19 04:05:54;;;;;;;10.43;6.20;;;9.90;99.90;;;;;;5048552;28;20664;-48
2021/05/19 04:08:21;;;;;;;7.90;6.27;;;9.90;99.90;;;;;;5051412;28;20697;-47
2021/05/19 04:10:48;;;;;;;9.43;6.23;;;9.90;99.90;;;;;;5049279;28;20274;-48
2021/05/19 04:13:14;;;;;;;8.63;6.40;;;9.80;99.90;;;;;;5045978;28;20274;-48
2021/05/19 04:15:41;;;;;;;9.07;6.20;;;9.80;99.90;;;;;;5050372;28;20249;-50
2021/05/19 04:18:08;;;;;;;7.27;6.20;;;9.90;99.90;;;;;;5049491;28;20206;-48
2021/05/19 04:20:36;;;;;;;9.93;6.20;;;10.10;99.90;;;;;;5058869;28;20207;-48
2021/05/19 04:23:03;;;;;;;10.00;6.37;;;10.30;99.90;;;;;;5049962;28;20201;-49
2021/05/19 04:25:30;;;;;;;10.23;5.73;;;10.40;99.90;;;;;;5051261;28;20252;-48
2021/05/19 04:27:57;;;;;;;7.20;5.97;;;10.40;99.90;;;;;;5051530;28;20258;-49
2021/05/19 04:30:24;;;;;;;7.83;5.90;;;10.40;99.90;;;;;;5049560;28;20204;-49
2021/05/19 04:32:53;;;;;;;12.63;6.77;;;10.20;99.90;;;;;;5051012;28;20288;-49
2021/05/19 04:35:20;;;;;;;10.77;6.47;;;10.40;99.90;;;;;;5050890;28;20215;-48
2021/05/19 04:37:47;;;;;;;12.47;6.67;;;10.50;99.90;;;;;;5048543;28;20744;-48
2021/05/19 04:40:14;;;;;;;9.40;5.77;;;10.50;99.90;;;;;;5050393;28;20201;-49
2021/05/19 04:42:41;;;;;;;9.77;6.60;;;10.50;99.90;;;;;;5048235;28;20235;-47
2021/05/19 04:45:09;;;;;;;9.80;6.33;;;10.40;99.90;;;;;;5047327;28;20205;-48
2021/05/19 04:47:36;;;;;;;10.37;6.50;;;10.70;99.90;;;;;;5048639;28;20240;-49
2021/05/19 04:50:05;;;;;;;12.53;7.07;;;10.60;99.90;;;;;;5050646;28;20249;-48
2021/05/19 04:52:32;;;;;;;12.90;5.37;;;10.70;99.90;;;;;;5050867;28;20243;-49
2021/05/19 04:55:01;;;;;;;9.37;5.90;;;10.80;99.90;;;;;;5047112;28;20681;-48
2021/05/19 04:57:28;;;;;;;10.20;6.17;;;10.90;99.90;;;;;;5050646;28;20203;-48
2021/05/19 04:59:55;;;;;;;9.40;6.47;;;10.90;99.90;;;;;;5050164;28;21499;-48
2021/05/19 05:02:22;;;;;;;8.07;6.30;;;11.00;99.90;;;;;;5048075;28;20238;-51
2021/05/19 05:04:50;;;;;;;9.67;6.10;;;10.80;99.90;;;;;;5052075;28;20215;-48
2021/05/19 05:07:17;;;;;;;11.47;6.30;;;10.50;99.90;;;;;;5050934;28;20205;-48
2021/05/19 05:09:47;;;;;;;10.53;6.20;;;10.50;99.90;;;;;;5048201;28;20494;-48
2021/05/19 05:12:15;;;;;;;8.47;5.87;;;10.70;99.90;;;;;;5048751;28;20258;-48
2021/05/19 05:14:42;;;;;;;8.80;6.30;;;10.70;99.90;;;;;;5045751;28;20536;-48
2021/05/19 05:17:14;;;;;;;8.97;6.40;;;10.60;99.90;;;;;;5051122;28;20287;-48
2021/05/19 05:19:41;;;;;;;14.43;6.37;;;10.40;99.90;;;;;;5048365;28;20200;-48
2021/05/19 05:22:08;;;;;;;9.23;6.17;;;10.50;99.90;;;;;;5050213;28;20252;-49
2021/05/19 05:24:36;;;;;;;13.97;7.17;;;10.50;99.90;;;;;;5048241;28;20502;-48
2021/05/19 05:27:03;;;;;;;9.63;6.83;;;10.60;99.90;;;;;;5048040;28;20252;-47
2021/05/19 05:29:30;;;;;;;9.40;6.20;;;10.80;99.90;;;;;;5051074;28;20226;-49
2021/05/19 05:31:58;;;;;;;9.60;6.70;;;11.00;99.90;;;;;;5051719;28;20782;-48
2021/05/19 05:34:25;;;;;;;12.30;7.43;;;11.20;99.90;;;;;;5052431;28;20218;-48
2021/05/19 05:36:52;;;;;;;12.60;7.07;;;11.10;99.90;;;;;;5050178;28;20583;-49
2021/05/19 05:39:19;;;;;;;10.07;7.20;;;11.20;99.90;;;;;;5051129;28;20297;-49
2021/05/19 05:41:46;;;;;;;8.67;6.77;;;11.00;99.90;;;;;;5054005;28;20223;-48
2021/05/19 05:44:13;;;;;;;9.23;6.30;;;11.30;99.90;;;;;;5053262;28;20249;-49
2021/05/19 05:46:39;;;;;;;11.00;6.87;;;11.20;99.90;;;;;;5053340;28;20309;-48
2021/05/19 05:49:07;;;;;;;12.30;7.47;;;11.30;99.90;;;;;;5055699;28;20202;-48
2021/05/19 05:51:35;;;;;;;11.80;7.00;;;11.30;99.90;;;;;;5054061;28;20583;-49
2021/05/19 05:54:02;;;;;;;11.73;6.67;;;11.20;99.90;;;;;;5050384;28;20213;-48
2021/05/19 05:56:29;;;;;;;10.87;6.60;;;11.20;99.90;;;;;;5051364;28;20205;-49
2021/05/19 05:58:56;;;;;;;12.90;7.27;;;11.20;99.90;;;;;;5050686;28;20198;-49
2021/05/19 06:01:23;;;;;;;10.00;6.43;;;11.10;99.90;;;;;;5044783;28;20261;-48
2021/05/19 06:03:50;;;;;;;12.67;6.63;;;11.20;99.90;;;;;;5047959;28;20255;-49
2021/05/19 06:06:16;;;;;;;12.60;7.10;;;11.10;99.90;;;;;;5054657;28;20205;-48
2021/05/19 06:08:43;;;;;;;11.97;6.77;;;11.20;99.90;;;;;;5050886;28;20204;-49
2021/05/19 06:11:10;;;;;;;11.33;6.73;;;11.20;99.90;;;;;;5052179;28;20309;-48
2021/05/19 06:13:37;;;;;;;12.27;6.80;;;11.40;99.90;;;;;;5049292;28;20743;-49
2021/05/19 06:16:04;;;;;;;11.77;7.27;;;11.50;99.90;;;;;;5049099;28;20206;-48
2021/05/19 06:18:31;;;;;;;16.33;7.40;;;11.50;99.90;;;;;;5053975;28;20193;-49
2021/05/19 06:20:58;;;;;;;13.33;7.37;;;11.40;99.90;;;;;;5051071;28;20206;-51
2021/05/19 06:23:25;;;;;;;12.63;6.60;;;11.60;99.90;;;;;;5049431;28;20567;-48
2021/05/19 06:25:52;;;;;;;10.17;6.40;;;11.60;99.90;;;;;;5054054;28;20211;-48
2021/05/19 06:28:19;;;;;;;15.73;6.73;;;11.70;99.90;;;;;;5053990;28;20692;-48
2021/05/19 06:30:46;;;;;;;13.67;6.83;;;11.70;99.90;;;;;;5050817;28;20226;-48
2021/05/19 06:33:13;;;;;;;15.00;6.83;;;11.90;99.90;;;;;;5051203;28;20208;-48
2021/05/19 06:35:40;;;;;;;12.27;7.20;;;12.00;99.90;;;;;;5050340;28;20205;-48
2021/05/19 06:38:07;;;;;;;15.90;7.23;;;12.00;99.90;;;;;;5053485;28;20207;-48
2021/05/19 06:40:34;;;;;;;14.07;8.60;;;11.70;99.90;;;;;;5050595;28;20206;-47
2021/05/19 06:43:02;;;;;;;15.13;7.93;;;11.90;99.90;;;;;;5052021;28;20203;-48
2021/05/19 06:45:29;;;;;;;15.07;8.50;;;12.00;99.90;;;;;;5050495;28;20218;-48
2021/05/19 06:47:55;;;;;;;11.87;7.80;;;12.00;99.90;;;;;;5048981;28;20304;-48
2021/05/19 06:50:22;;;;;;;12.20;8.07;;;12.20;99.90;;;;;;5050510;28;20232;-48
2021/05/19 06:52:49;;;;;;;13.50;8.40;;;12.30;99.90;;;;;;5051002;28;20255;-47
2021/05/19 06:55:18;;;;;;;13.27;8.40;;;12.30;99.90;;;;;;5051420;28;20214;-48
2021/05/19 06:57:44;;;;;;;15.63;8.60;;;12.20;99.90;;;;;;5053497;28;20244;-47
2021/05/19 07:00:12;;;;;;;13.40;7.40;;;12.30;99.90;;;;;;5051187;28;20230;-48
2021/05/19 07:02:39;;;;;;;15.83;8.57;;;12.40;99.90;;;;;;5048159;28;20254;-48
2021/05/19 07:05:07;;;;;;;12.57;7.43;;;12.50;99.90;;;;;;5046084;28;21037;-49
2021/05/19 07:07:34;;;;;;;11.77;7.30;;;12.70;99.90;;;;;;5048905;28;20631;-48
2021/05/19 07:10:03;;;;;;;15.63;7.80;;;12.70;99.90;;;;;;5050002;28;20206;-49
2021/05/19 07:12:30;;;;;;;13.83;7.53;;;12.70;99.90;;;;;;5049995;28;20276;-48
2021/05/19 07:15:00;;;;;;;14.13;8.87;;;12.50;99.90;;;;;;5050047;28;20615;-48
2021/05/19 07:17:27;;;;;;;18.37;8.60;;;12.50;99.90;;;;;;5050185;28;20263;-48
2021/05/19 07:19:54;;;;;;;14.77;7.00;;;12.50;99.90;;;;;;5049020;28;20207;-48
2021/05/19 07:22:22;;;;;;;15.70;7.40;;;12.40;99.90;;;;;;5044635;28;20215;-48
2021/05/19 07:24:50;;;;;;;14.43;7.80;;;12.60;99.90;;;;;;5045984;28;20250;-48
2021/05/19 07:27:17;;;;;;;14.63;8.03;;;12.60;99.90;;;;;;5045787;28;20228;-48
2021/05/19 07:29:44;;;;;;;12.47;7.23;;;12.40;99.90;;;;;;5044292;28;20281;-48
2021/05/19 07:32:11;;;;;;;11.70;7.60;;;12.60;99.90;;;;;;5046989;28;20229;-48
2021/05/19 07:34:37;;;;;;;12.00;6.87;;;12.50;99.90;;;;;;5049870;28;20262;-48
2021/05/19 07:37:04;;;;;;;12.47;7.80;;;12.60;99.90;;;;;;5048324;28;20292;-49
2021/05/19 07:39:31;;;;;;;13.33;8.70;;;12.70;99.90;;;;;;5050024;28;20666;-48
2021/05/19 07:41:58;;;;;;;14.43;9.73;;;12.60;99.90;;;;;;5051384;28;20255;-48
2021/05/19 07:44:26;;;;;;;20.97;9.70;;;12.60;99.90;;;;;;5050955;28;20687;-48
2021/05/19 07:46:51;;;;;;;14.83;10.27;;;12.50;99.90;;;;;;5051552;28;20777;-49
2021/05/19 07:49:17;;;;;;;17.80;11.53;;;12.40;99.90;;;;;;5046907;28;20219;-48
2021/05/19 07:51:43;;;;;;;14.03;10.43;;;12.40;99.90;;;;;;5043481;28;20252;-49
2021/05/19 07:54:17;;;;;;;19.90;11.80;;;12.50;99.90;;;;;;5045907;28;20564;-48
2021/05/19 07:56:59;;;;;;;26.13;12.20;;;12.50;99.90;;;;;;5046203;28;20306;-48
2021/05/19 07:59:28;;;;;;;15.73;11.37;;;12.70;99.90;;;;;;5043001;28;20914;-48
2021/05/19 08:02:02;;;;;;;16.07;11.53;;;12.80;99.90;;;;;;5039231;28;20284;-48
2021/05/19 08:04:32;;;;;;;15.17;11.03;;;12.80;99.90;;;;;;5042079;28;20376;-48
2021/05/19 08:06:58;;;;;;;17.33;11.73;;;12.70;99.90;;;;;;5046053;28;20337;-48
2021/05/19 08:09:24;;;;;;;17.67;11.97;;;13.00;99.90;;;;;;5043491;28;20196;-47
2021/05/19 08:11:50;;;;;;;14.33;10.60;;;13.00;99.90;;;;;;5046975;28;20189;-47
2021/05/19 08:14:16;;;;;;;19.20;11.17;;;13.20;99.90;;;;;;5050122;28;20208;-48
2021/05/19 08:16:42;;;;;;;18.03;11.90;;;13.00;99.90;;;;;;5049517;28;20188;-48
2021/05/19 08:19:08;;;;;;;17.10;11.20;;;12.90;99.90;;;;;;5050621;28;20263;-47
2021/05/19 08:21:36;;;;;;;17.17;11.87;;;12.80;99.90;;;;;;5048858;28;20256;-48
2021/05/19 08:24:03;;;;;;;19.90;11.83;;;12.90;99.90;;;;;;5049978;28;20210;-47
2021/05/19 08:26:30;;;;;;;18.57;12.27;;;12.80;99.90;;;;;;5050582;28;20199;-47
2021/05/19 08:28:57;;;;;;;18.20;11.80;;;13.00;99.90;;;;;;5048755;28;20202;-47
2021/05/19 08:31:25;;;;;;;16.97;11.80;;;13.10;99.90;;;;;;5049234;28;20214;-48
2021/05/19 08:34:09;;;;;;;17.13;11.70;;;13.00;99.90;;;;;;5049436;28;20212;-48
2021/05/19 08:36:36;;;;;;;20.43;11.67;;;13.10;99.90;;;;;;5052661;28;20267;-49
2021/05/19 08:39:03;;;;;;;16.27;11.20;;;13.10;99.90;;;;;;5049786;28;20674;-47
2021/05/19 08:41:30;;;;;;;16.90;11.50;;;13.00;99.90;;;;;;5047529;28;20225;-47
2021/05/19 08:43:56;;;;;;;19.13;12.47;;;13.20;99.90;;;;;;5046928;28;20610;-48
2021/05/19 08:46:23;;;;;;;20.30;12.63;;;13.20;99.90;;;;;;5040273;28;20344;-48
2021/05/19 08:49:03;;;;;;;20.73;13.83;;;13.10;99.90;;;;;;5045809;28;20221;-48
2021/05/19 08:51:30;;;;;;;22.53;11.60;;;13.30;99.90;;;;;;5044742;28;20254;-48
2021/05/19 08:53:57;;;;;;;22.33;12.40;;;13.40;99.90;;;;;;5042676;28;20204;-48
2021/05/19 08:56:24;;;;;;;15.67;11.30;;;13.60;99.90;;;;;;5045929;28;20198;-47
2021/05/19 08:58:51;;;;;;;18.10;12.50;;;14.00;99.90;;;;;;5044979;28;20212;-47
2021/05/19 09:01:20;;;;;;;15.60;11.60;;;14.30;99.90;;;;;;5028962;28;20246;-47
2021/05/19 09:04:04;;;;;;;19.43;11.60;;;14.00;99.90;;;;;;5041189;28;20197;-48
2021/05/19 09:06:35;;;;;;;18.37;11.33;;;13.90;99.90;;;;;;5041180;28;20287;-47
2021/05/19 09:09:32;;;;;;;21.47;10.50;;;13.90;99.90;;;;;;5045498;28;20681;-48
2021/05/19 09:12:09;;;;;;;12.17;9.63;;;14.00;99.90;;;;;;5039810;28;20799;-48
2021/05/19 09:14:42;;;;;;;15.90;10.70;;;14.00;99.90;;;;;;5044868;28;20274;-47
2021/05/19 09:17:25;;;;;;;17.53;10.20;;;13.80;99.90;;;;;;5047413;28;20258;-50
2021/05/19 09:20:06;;;;;;;19.73;10.00;;;13.90;99.90;;;;;;5043201;28;20221;-50
2021/05/19 09:22:37;;;;;;;13.63;9.40;;;14.00;99.90;;;;;;5045309;28;20350;-48
2021/05/19 09:25:22;;;;;;;16.27;9.87;;;14.10;99.90;;;;;;5048284;28;20797;-50
2021/05/19 09:27:51;;;;;;;16.40;9.50;;;14.10;99.90;;;;;;5047782;28;20601;-49
2021/05/19 09:30:40;;;;;;;13.00;9.83;;;14.00;99.90;;;;;;5046060;28;20220;-48
2021/05/19 09:33:21;;;;;;;11.33;7.37;;;14.10;99.90;;;;;;5045721;28;20210;-48
2021/05/19 09:36:12;;;;;;;9.33;6.30;;;13.90;99.90;;;;;;5045320;28;20225;-48
2021/05/19 09:38:39;;;;;;;9.33;6.50;;;13.80;99.90;;;;;;5041059;28;20234;-48
2021/05/19 09:41:28;;;;;;;13.63;7.40;;;14.30;99.90;;;;;;5045091;28;20247;-50
2021/05/19 09:43:57;;;;;;;12.97;7.70;;;14.70;99.90;;;;;;5046480;28;20190;-49
2021/05/19 09:46:34;;;;;;;10.50;7.43;;;15.20;99.90;;;;;;5046751;28;20711;-48
2021/05/19 09:49:15;;;;;;;10.57;7.50;;;15.20;99.90;;;;;;5043395;28;20205;-49
2021/05/19 09:51:48;;;;;;;10.00;6.63;;;15.10;99.90;;;;;;5044774;28;21657;-49
2021/05/19 09:54:30;;;;;;;9.07;6.40;;;14.90;99.90;;;;;;5044145;28;20196;-48
2021/05/19 09:56:59;;;;;;;9.23;6.43;;;14.50;99.90;;;;;;5047295;28;20231;-48
2021/05/19 09:59:26;;;;;;;15.70;8.80;;;14.40;99.90;;;;;;5043345;28;20207;-51
2021/05/19 10:01:55;;;;;;;13.60;10.40;;;13.80;99.90;;;;;;5045016;28;20243;-48
2021/05/19 10:04:26;;;;;;;14.20;10.90;;;13.50;99.90;;;;;;5041771;28;20353;-48
2021/05/19 10:06:53;;;;;;;15.87;11.13;;;13.30;99.90;;;;;;5043202;28;20713;-48
2021/05/19 10:09:28;;;;;;;17.97;10.80;;;13.60;99.90;;;;;;5042716;28;20207;-48
2021/05/19 10:11:59;;;;;;;15.10;10.53;;;13.80;99.90;;;;;;5046585;28;20309;-49
2021/05/19 10:14:26;;;;;;;14.07;9.23;;;14.20;99.90;;;;;;5043325;28;20309;-49
2021/05/19 10:17:11;;;;;;;9.67;8.67;;;14.20;99.90;;;;;;5047077;28;20678;-49
2021/05/19 10:19:50;;;;;;;13.03;7.77;;;14.20;99.90;;;;;;5046283;28;20200;-49
2021/05/19 10:22:18;;;;;;;13.00;7.43;;;14.20;99.90;;;;;;5048957;28;20621;-49
2021/05/19 10:24:54;;;;;;;11.37;7.80;;;13.90;99.90;;;;;;5047134;28;20235;-49
2021/05/19 10:27:21;;;;;;;12.57;8.47;;;13.90;99.90;;;;;;5048388;28;20250;-49
2021/05/19 10:29:58;;;;;;;12.60;8.57;;;14.00;99.90;;;;;;5044852;28;20203;-49
2021/05/19 10:32:33;;;;;;;18.03;9.83;;;14.00;99.90;;;;;;5046067;28;20199;-49
2021/05/19 10:35:10;;;;;;;10.70;8.47;;;13.90;99.90;;;;;;5046969;28;20346;-49
2021/05/19 10:37:46;;;;;;;11.63;8.93;;;13.90;99.90;;;;;;5045655;28;20649;-49
2021/05/19 10:40:16;;;;;;;10.93;8.83;;;13.80;99.90;;;;;;5045872;28;20227;-49
2021/05/19 10:42:56;;;;;;;15.17;9.47;;;13.80;99.90;;;;;;5044764;28;20667;-49
2021/05/19 10:45:23;;;;;;;20.20;10.13;;;14.10;99.90;;;;;;5048591;28;20852;-49
2021/05/19 10:47:50;;;;;;;17.00;10.30;;;14.10;99.90;;;;;;5044360;28;20226;-49
2021/05/19 10:50:31;;;;;;;14.80;9.27;;;14.10;99.90;;;;;;5047157;28;20634;-49
2021/05/19 10:58:39;;;;;;;6.17;4.40;;;13.20;99.90;;;;;;5047493;28;20277;-49
2021/05/19 11:01:08;;;;;;;2.00;1.80;;;13.00;99.90;;;;;;5045064;28;20203;-49
2021/05/19 11:03:36;;;;;;;3.57;1.77;;;12.30;99.90;;;;;;5048581;28;20205;-49
2021/05/19 11:06:06;;;;;;;2.80;2.07;;;12.40;99.90;;;;;;5047701;28;20255;-49
2021/05/19 11:08:35;;;;;;;4.70;2.73;;;12.40;99.90;;;;;;5048687;28;20654;-48
2021/05/19 11:11:25;;;;;;;4.33;3.57;;;12.50;99.90;;;;;;5048889;28;20313;-49
2021/05/19 11:17:06;;;;;;;4.27;2.30;;;12.30;99.90;;;;;;5044454;28;22588;-49
2021/05/19 11:19:37;;;;;;;2.57;1.50;;;12.20;99.90;;;;;;5046374;28;20202;-48
2021/05/19 11:22:12;;;;;;;3.43;1.90;;;12.00;99.90;;;;;;5045031;28;20303;-49
2021/05/19 11:24:56;;;;;;;3.03;1.53;;;12.10;99.90;;;;;;5045066;28;20216;-49
2021/05/19 11:27:29;;;;;;;1.83;1.30;;;12.20;99.90;;;;;;5048330;28;20345;-48
2021/05/19 11:29:57;;;;;;;3.57;2.90;;;12.40;99.90;;;;;;5044919;28;20301;-49
2021/05/19 11:32:29;;;;;;;6.73;4.17;;;12.50;99.90;;;;;;5044908;28;20210;-48
2021/05/19 11:35:19;;;;;;;6.43;3.30;;;12.60;99.90;;;;;;5044515;28;20742;-48
2021/05/19 11:38:08;;;;;;;6.13;3.47;;;13.20;99.90;;;;;;5044418;28;20203;-48
2021/05/19 11:40:49;;;;;;;2.23;1.60;;;13.50;99.90;;;;;;5047916;28;20295;-49
2021/05/19 11:43:23;;;;;;;2.93;2.20;;;13.30;99.90;;;;;;5044676;28;20301;-49
2021/05/19 11:45:58;;;;;;;2.37;1.53;;;13.80;99.90;;;;;;5045122;28;20261;-49
2021/05/19 11:48:28;;;;;;;5.53;1.83;;;13.60;99.90;;;;;;5045625;28;20292;-49
2021/05/19 11:51:22;;;;;;;1.87;1.23;;;13.40;99.90;;;;;;5045954;28;20321;-48
2021/05/19 11:54:00;;;;;;;3.50;1.80;;;13.30;99.90;;;;;;5045819;28;20214;-49
2021/05/19 11:56:46;;;;;;;2.90;1.77;;;13.30;99.90;;;;;;5043429;28;20330;-48
2021/05/19 11:59:21;;;;;;;2.00;1.30;;;13.50;99.90;;;;;;5045091;28;20264;-48
2021/05/19 12:01:53;;;;;;;2.57;1.30;;;13.20;99.90;;;;;;5042318;28;20238;-49
2021/05/19 12:04:20;;;;;;;1.73;1.10;;;13.50;99.90;;;;;;5041470;28;20210;-49
2021/05/19 12:06:49;;;;;;;2.03;1.20;;;13.70;99.90;;;;;;5047246;28;20238;-49
2021/05/19 12:09:19;;;;;;;1.27;1.07;;;13.60;99.90;;;;;;5043807;28;21291;-49
2021/05/19 12:11:46;;;;;;;1.87;1.03;;;13.50;99.90;;;;;;5046567;28;20203;-49
2021/05/19 12:14:13;;;;;;;1.63;1.00;;;13.90;99.90;;;;;;5042950;28;20290;-49
2021/05/19 12:16:43;;;;;;;1.63;1.00;;;14.00;99.90;;;;;;5043776;28;20680;-49
2021/05/19 12:19:11;;;;;;;1.43;0.90;;;14.10;99.90;;;;;;5045333;28;20203;-49
2021/05/19 12:21:47;;;;;;;1.23;0.87;;;14.30;99.90;;;;;;5044969;28;20345;-49
2021/05/19 12:24:16;;;;;;;0.80;0.60;;;14.60;99.90;;;;;;5046810;28;20226;-49
2021/05/19 12:26:45;;;;;;;1.60;0.67;;;14.70;99.90;;;;;;5046774;28;20219;-49
2021/05/19 12:29:44;;;;;;;1.10;1.00;;;15.20;99.90;;;;;;5046285;28;20608;-50
2021/05/19 12:32:15;;;;;;;0.50;0.47;;;15.60;99.90;;;;;;5040971;28;20211;-49
2021/05/19 12:34:44;;;;;;;0.60;0.50;;;16.00;99.90;;;;;;5042993;28;20253;-50
2021/05/19 12:37:12;;;;;;;1.60;0.67;;;15.90;99.90;;;;;;5043835;28;20214;-49
2021/05/19 12:39:43;;;;;;;0.90;0.50;;;15.10;99.90;;;;;;5045661;28;20234;-49
2021/05/19 12:42:17;;;;;;;2.77;0.87;;;14.90;99.90;;;;;;5043221;28;20281;-50
2021/05/19 12:44:44;;;;;;;0.93;0.60;;;14.50;99.90;;;;;;5049032;28;20297;-50
2021/05/19 12:47:13;;;;;;;0.70;0.60;;;14.70;99.90;;;;;;5048849;28;20203;-49
2021/05/19 12:49:42;;;;;;;2.97;0.90;;;15.10;99.90;;;;;;5044849;28;20192;-51
2021/05/19 12:52:18;;;;;;;1.53;0.97;;;14.80;99.90;;;;;;5043686;28;20227;-50
2021/05/19 12:54:51;;;;;;;0.93;0.60;;;14.80;99.90;;;;;;5045335;28;20204;-50
2021/05/19 12:57:24;;;;;;;1.07;0.67;;;15.10;99.90;;;;;;5045274;28;20205;-50
2021/05/19 12:59:56;;;;;;;2.23;0.73;;;15.40;99.90;;;;;;5043591;28;20238;-50
2021/05/19 13:02:25;;;;;;;1.90;0.70;;;15.20;99.90;;;;;;5042642;28;20251;-50
2021/05/19 13:04:54;;;;;;;1.50;0.83;;;14.80;99.90;;;;;;5046261;28;20222;-50
2021/05/19 13:07:23;;;;;;;1.33;0.83;;;14.50;99.90;;;;;;5044687;28;20230;-50